createdAt,value
2022-09-11T00:01:48.490Z,14.77
2022-09-11T00:04:17.173Z,14.43
2022-09-11T00:06:46.309Z,16.90
2022-09-11T00:09:14.847Z,18.42
2022-09-11T00:11:44.304Z,17.42
2022-09-11T00:14:16.104Z,17.60
2022-09-11T00:16:47.457Z,16.33
2022-09-11T00:19:17.879Z,15.65
2022-09-11T00:21:47.116Z,13.90
2022-09-11T00:24:15.611Z,14.88
2022-09-11T00:26:47.163Z,14.75
2022-09-11T00:29:17.816Z,13.88
2022-09-11T00:31:46.595Z,13.20
2022-09-11T00:34:15.166Z,13.40
2022-09-11T00:36:44.218Z,12.52
2022-09-11T00:39:14.553Z,12.30
2022-09-11T00:41:44.974Z,11.85
2022-09-11T00:44:50.987Z,12.05
2022-09-11T00:47:21.827Z,12.43
2022-09-11T00:49:56.179Z,12.30
2022-09-11T00:52:28.320Z,13.10
2022-09-11T00:55:00.200Z,13.63
2022-09-11T00:57:33.789Z,13.50
2022-09-11T01:00:03.780Z,13.40
2022-09-11T01:02:38.315Z,14.00
2022-09-11T01:05:08.608Z,14.03
2022-09-11T01:07:38.287Z,13.33
2022-09-11T01:10:09.015Z,13.57
2022-09-11T01:12:45.492Z,14.17
2022-09-11T01:15:20.852Z,14.40
2022-09-11T01:18:01.264Z,13.63
2022-09-11T01:20:43.392Z,14.90
2022-09-11T01:23:33.145Z,14.27
2022-09-11T01:26:38.577Z,14.45
2022-09-11T01:29:18.630Z,15.70
2022-09-11T01:31:55.941Z,14.43
2022-09-11T01:34:31.970Z,14.63
2022-09-11T01:37:04.684Z,15.80
2022-09-11T01:39:41.900Z,15.55
2022-09-11T01:42:17.215Z,15.50
2022-09-11T01:44:52.110Z,15.02
2022-09-11T01:47:23.192Z,14.60
2022-09-11T01:49:57.622Z,15.20
2022-09-11T01:52:34.534Z,13.18
2022-09-11T01:55:12.033Z,13.80
2022-09-11T01:57:46.048Z,14.15
2022-09-11T02:00:18.107Z,14.17
2022-09-11T02:02:59.483Z,14.50
2022-09-11T02:05:32.337Z,14.37
2022-09-11T02:08:06.666Z,14.85
2022-09-11T02:10:39.715Z,14.70
2022-09-11T02:13:15.749Z,13.70
2022-09-11T02:15:52.136Z,13.70
2022-09-11T02:18:26.893Z,14.15
2022-09-11T02:20:55.868Z,14.80
2022-09-11T02:23:24.389Z,15.07
2022-09-11T02:25:54.416Z,14.05
2022-09-11T02:28:23.033Z,14.77
2022-09-11T02:30:54.267Z,14.30
2022-09-11T02:33:31.236Z,13.70
2022-09-11T02:36:20.938Z,14.43
2022-09-11T02:39:05.467Z,13.73
2022-09-11T02:41:46.312Z,14.27
2022-09-11T02:44:24.318Z,13.77
2022-09-11T02:47:06.994Z,14.03
2022-09-11T02:49:45.569Z,13.80
2022-09-11T02:52:23.135Z,14.30
2022-09-11T02:54:57.688Z,13.40
2022-09-11T02:57:32.017Z,14.37
2022-09-11T03:00:03.938Z,14.20
2022-09-11T03:02:40.067Z,13.90
2022-09-11T03:05:10.396Z,13.27
2022-09-11T03:07:41.629Z,13.00
2022-09-11T03:10:12.172Z,13.80
2022-09-11T03:12:41.795Z,13.17
2022-09-11T03:15:12.910Z,12.90
2022-09-11T03:17:45.579Z,13.53
2022-09-11T03:20:16.796Z,12.43
2022-09-11T03:22:45.339Z,13.37
2022-09-11T03:25:15.223Z,13.10
2022-09-11T03:27:45.050Z,12.77
2022-09-11T03:30:15.195Z,12.30
2022-09-11T03:32:45.806Z,13.17
2022-09-11T03:35:15.172Z,14.40
2022-09-11T03:37:44.335Z,14.53
2022-09-11T03:40:13.053Z,14.32
2022-09-11T03:42:41.779Z,15.43
2022-09-11T03:45:11.153Z,15.87
2022-09-11T03:47:41.366Z,15.20
2022-09-11T03:50:12.163Z,15.90
2022-09-11T03:52:40.844Z,15.63
2022-09-11T03:55:09.928Z,16.73
2022-09-11T03:57:40.625Z,17.07
2022-09-11T04:00:11.503Z,17.03
2022-09-11T04:02:49.722Z,16.03
2022-09-11T04:05:33.073Z,16.37
2022-09-11T04:08:03.292Z,16.30
2022-09-11T04:10:34.144Z,15.87
2022-09-11T04:13:03.906Z,15.77
2022-09-11T04:15:32.948Z,16.30
2022-09-11T04:18:05.501Z,16.80
2022-09-11T04:20:39.930Z,17.97
2022-09-11T04:23:09.264Z,16.00
2022-09-11T04:25:39.004Z,16.23
2022-09-11T04:28:07.663Z,16.17
2022-09-11T04:30:38.486Z,16.73
2022-09-11T04:33:07.539Z,16.80
2022-09-11T04:35:40.607Z,17.20
2022-09-11T04:38:09.736Z,17.77
2022-09-11T04:40:40.111Z,18.03
2022-09-11T04:43:09.489Z,18.40
2022-09-11T04:45:40.573Z,19.27
2022-09-11T04:48:11.290Z,19.03
2022-09-11T04:50:41.609Z,18.40
2022-09-11T04:53:19.604Z,19.27
2022-09-11T04:55:50.539Z,18.30
2022-09-11T04:58:19.508Z,19.52
2022-09-11T05:00:48.126Z,18.57
2022-09-11T05:03:18.003Z,19.03
2022-09-11T05:05:47.983Z,19.03
2022-09-11T05:08:18.955Z,18.65
2022-09-11T05:10:49.755Z,19.13
2022-09-11T05:13:18.301Z,19.20
2022-09-11T05:15:47.100Z,18.70
2022-09-11T05:18:15.672Z,18.37
2022-09-11T05:20:44.596Z,18.00
2022-09-11T05:23:14.766Z,18.15
2022-09-11T05:25:44.190Z,17.30
2022-09-11T05:28:12.673Z,16.47
2022-09-11T05:30:41.205Z,17.05
2022-09-11T05:33:09.775Z,16.23
2022-09-11T05:35:38.235Z,16.53
2022-09-11T05:38:06.783Z,16.45
2022-09-11T05:40:36.591Z,15.57
2022-09-11T05:43:05.116Z,16.33
2022-09-11T05:45:33.742Z,16.17
2022-09-11T05:48:03.293Z,16.27
2022-09-11T05:50:33.165Z,15.40
2022-09-11T05:53:02.246Z,16.15
2022-09-11T05:55:34.916Z,15.93
2022-09-11T05:58:05.038Z,16.60
2022-09-11T06:00:34.308Z,16.10
2022-09-11T06:03:02.824Z,16.35
2022-09-11T06:05:31.951Z,16.93
2022-09-11T06:08:02.414Z,16.75
2022-09-11T06:10:31.015Z,15.97
2022-09-11T06:12:59.504Z,16.17
2022-09-11T06:15:45.707Z,15.57
2022-09-11T06:18:15.817Z,15.87
2022-09-11T06:20:44.870Z,15.97
2022-09-11T06:23:19.349Z,14.38
2022-09-11T06:25:48.362Z,13.93
2022-09-11T06:28:16.902Z,13.40
2022-09-11T06:30:49.731Z,13.67
2022-09-11T06:33:20.301Z,12.60
2022-09-11T06:35:58.973Z,12.63
2022-09-11T06:38:27.818Z,11.07
2022-09-11T06:40:57.254Z,12.23
2022-09-11T06:43:25.895Z,11.47
2022-09-11T06:45:55.959Z,11.03
2022-09-11T06:48:24.519Z,10.87
2022-09-11T06:50:53.086Z,9.60
2022-09-11T06:53:21.555Z,10.57
2022-09-11T06:55:54.715Z,10.00
2022-09-11T06:58:23.305Z,9.80
2022-09-11T07:00:52.309Z,10.40
2022-09-11T07:03:22.461Z,10.07
2022-09-11T07:05:52.864Z,10.70
2022-09-11T07:08:24.858Z,10.90
2022-09-11T07:10:53.945Z,11.27
2022-09-11T07:13:24.257Z,11.50
2022-09-11T07:16:01.429Z,11.30
2022-09-11T07:18:36.435Z,11.83
2022-09-11T07:21:08.103Z,11.10
2022-09-11T07:23:37.362Z,10.90
2022-09-11T07:26:08.887Z,11.23
2022-09-11T07:28:38.758Z,11.40
2022-09-11T07:31:11.385Z,11.27
2022-09-11T07:33:45.767Z,10.03
2022-09-11T07:36:16.762Z,9.63
2022-09-11T07:38:47.225Z,9.67
2022-09-11T07:41:17.781Z,8.90
2022-09-11T07:43:48.305Z,9.13
2022-09-11T07:46:17.470Z,8.93
2022-09-11T07:48:47.823Z,8.97
2022-09-11T07:51:18.722Z,7.93
2022-09-11T07:53:49.701Z,7.90
2022-09-11T07:56:19.948Z,8.10
2022-09-11T07:58:49.897Z,7.43
2022-09-11T08:01:22.120Z,8.02
2022-09-11T08:03:58.258Z,7.03
2022-09-11T08:06:29.932Z,6.63
2022-09-11T08:09:02.747Z,7.23
2022-09-11T08:11:38.303Z,7.07
2022-09-11T08:14:07.362Z,6.83
2022-09-11T08:16:36.452Z,6.60
2022-09-11T08:19:07.963Z,6.33
2022-09-11T08:21:36.836Z,5.25
2022-09-11T08:24:07.267Z,5.60
2022-09-11T08:26:37.709Z,5.32
2022-09-11T08:29:06.835Z,5.25
2022-09-11T08:31:35.414Z,5.30
2022-09-11T08:34:04.950Z,4.75
2022-09-11T08:36:34.860Z,4.10
2022-09-11T08:39:03.641Z,4.93
2022-09-11T08:41:43.345Z,3.95
2022-09-11T08:44:20.887Z,4.53
2022-09-11T08:46:54.402Z,4.38
2022-09-11T08:49:27.156Z,4.03
2022-09-11T08:52:02.018Z,4.35
2022-09-11T08:54:34.593Z,3.95
2022-09-11T08:57:16.760Z,4.35
2022-09-11T09:00:07.599Z,3.92
2022-09-11T09:03:16.565Z,4.32
2022-09-11T09:05:52.842Z,4.63
2022-09-11T09:08:44.829Z,4.20
2022-09-11T09:11:25.423Z,4.13
2022-09-11T09:14:18.856Z,4.70
2022-09-11T09:16:52.843Z,3.90
2022-09-11T09:19:29.686Z,4.65
2022-09-11T09:22:06.659Z,4.67
2022-09-11T09:24:43.885Z,3.73
2022-09-11T09:27:18.665Z,3.37
2022-09-11T09:29:52.369Z,3.70
2022-09-11T09:32:26.886Z,3.10
2022-09-11T09:35:01.997Z,3.50
2022-09-11T09:37:31.082Z,2.88
2022-09-11T09:40:07.065Z,2.88
2022-09-11T09:43:00.305Z,3.05
2022-09-11T09:46:00.142Z,2.60
2022-09-11T09:48:33.531Z,2.22
2022-09-11T09:51:04.115Z,2.55
2022-09-11T09:53:40.925Z,2.47
2022-09-11T09:56:15.959Z,2.33
2022-09-11T09:58:56.461Z,2.90
2022-09-11T10:01:45.960Z,2.50
2022-09-11T10:04:18.556Z,2.70
2022-09-11T10:06:48.927Z,2.88
2022-09-11T10:09:26.080Z,2.90
2022-09-11T10:12:03.481Z,3.10
2022-09-11T10:14:50.999Z,3.03
2022-09-11T10:17:24.572Z,2.80
2022-09-11T10:19:57.044Z,3.60
2022-09-11T10:22:32.293Z,3.53
2022-09-11T10:25:06.977Z,3.70
2022-09-11T10:27:44.801Z,4.20
2022-09-11T10:30:30.076Z,3.90
2022-09-11T10:33:03.545Z,4.13
2022-09-11T10:35:34.424Z,3.92
2022-09-11T10:38:19.191Z,4.35
2022-09-11T10:41:09.462Z,4.43
2022-09-11T10:43:46.670Z,4.68
2022-09-11T10:46:29.054Z,4.63
2022-09-11T10:48:59.467Z,3.97
2022-09-11T10:51:29.951Z,4.03
2022-09-11T10:54:06.319Z,3.90
2022-09-11T10:56:41.261Z,3.45
2022-09-11T10:59:19.871Z,2.90
2022-09-11T11:01:48.407Z,2.83
2022-09-11T11:04:17.073Z,3.17
2022-09-11T11:07:00.490Z,3.05
2022-09-11T11:09:41.213Z,2.85
2022-09-11T11:12:23.778Z,2.40
2022-09-11T11:15:08.024Z,2.67
2022-09-11T11:17:43.628Z,2.58
2022-09-11T11:20:26.902Z,2.88
2022-09-11T11:23:16.529Z,2.90
2022-09-11T11:25:57.549Z,2.65
2022-09-11T11:28:42.616Z,2.17
2022-09-11T11:31:28.924Z,2.60
2022-09-11T11:34:11.934Z,2.60
2022-09-11T11:36:46.119Z,3.00
2022-09-11T11:39:23.536Z,2.83
2022-09-11T11:42:07.117Z,2.63
2022-09-11T11:44:46.633Z,2.90
2022-09-11T11:47:19.435Z,2.80
2022-09-11T11:49:56.034Z,2.78
2022-09-11T11:52:34.928Z,2.80
2022-09-11T11:55:16.865Z,3.20
2022-09-11T11:57:55.267Z,2.95
2022-09-11T12:00:24.360Z,2.65
2022-09-11T12:02:59.545Z,3.20
2022-09-11T12:05:30.504Z,2.40
2022-09-11T12:07:59.983Z,2.70
2022-09-11T12:10:34.614Z,3.05
2022-09-11T12:13:04.673Z,3.05
2022-09-11T12:15:34.698Z,2.40
2022-09-11T12:18:08.169Z,3.08
2022-09-11T12:20:41.893Z,3.03
2022-09-11T12:23:35.374Z,3.17
2022-09-11T12:26:20.830Z,3.00
2022-09-11T12:28:49.404Z,2.50
2022-09-11T12:31:18.982Z,2.88
2022-09-11T12:33:54.620Z,3.40
2022-09-11T12:36:30.936Z,3.10
2022-09-11T12:39:02.349Z,3.40
2022-09-11T12:41:33.775Z,3.50
2022-09-11T12:44:03.298Z,3.38
2022-09-11T12:47:14.902Z,3.38
2022-09-11T12:49:54.934Z,3.60
2022-09-11T12:52:33.892Z,3.67
2022-09-11T12:55:08.706Z,4.10
2022-09-11T12:57:40.814Z,3.78
2022-09-11T13:00:24.088Z,3.47
2022-09-11T13:02:56.872Z,4.10
2022-09-11T13:05:34.310Z,3.60
2022-09-11T13:08:06.295Z,3.42
2022-09-11T13:10:36.782Z,3.50
2022-09-11T13:13:40.817Z,3.40
2022-09-11T13:16:19.160Z,3.53
2022-09-11T13:18:48.285Z,3.38
2022-09-11T13:21:23.122Z,3.40
2022-09-11T13:23:54.503Z,3.05
2022-09-11T13:26:27.332Z,3.33
2022-09-11T13:28:57.868Z,3.75
2022-09-11T13:31:33.735Z,3.53
2022-09-11T13:34:05.283Z,3.45
2022-09-11T13:36:37.433Z,3.67
2022-09-11T13:39:06.809Z,3.40
2022-09-11T13:41:39.432Z,3.40
2022-09-11T13:44:12.365Z,3.35
2022-09-11T13:46:51.887Z,3.28
2022-09-11T13:49:28.680Z,3.40
2022-09-11T13:51:59.074Z,3.47
2022-09-11T13:54:30.729Z,3.30
2022-09-11T13:57:19.303Z,3.03
2022-09-11T13:59:49.903Z,3.28
2022-09-11T14:02:38.002Z,3.35
2022-09-11T14:05:16.185Z,3.40
2022-09-11T14:07:56.564Z,3.10
2022-09-11T14:10:32.499Z,3.63
2022-09-11T14:13:06.230Z,3.28
2022-09-11T14:15:41.179Z,3.60
2022-09-11T14:18:26.324Z,3.30
2022-09-11T14:20:56.033Z,3.05
2022-09-11T14:23:28.380Z,3.03
2022-09-11T14:26:16.128Z,3.00
2022-09-11T14:29:23.987Z,3.00
2022-09-11T14:31:53.872Z,2.85
2022-09-11T14:34:24.272Z,2.78
2022-09-11T14:36:56.264Z,3.40
2022-09-11T14:39:34.730Z,3.00
2022-09-11T14:42:04.918Z,3.60
2022-09-11T14:44:34.854Z,3.28
2022-09-11T14:47:03.322Z,2.97
2022-09-11T14:49:31.825Z,3.08
2022-09-11T14:52:01.847Z,2.78
2022-09-11T14:54:32.135Z,3.22
2022-09-11T14:57:01.231Z,3.40
2022-09-11T14:59:30.435Z,3.08
2022-09-11T15:01:59.855Z,2.92
2022-09-11T15:04:29.667Z,3.33
2022-09-11T15:06:59.849Z,3.13
2022-09-11T15:09:29.162Z,3.35
2022-09-11T15:11:59.029Z,3.28
2022-09-11T15:14:52.286Z,3.35
2022-09-11T15:17:20.180Z,3.67
2022-09-11T15:19:49.934Z,3.17
2022-09-11T15:22:19.018Z,3.30
2022-09-11T15:24:49.911Z,3.50
2022-09-11T15:27:20.189Z,3.75
2022-09-11T15:29:48.743Z,3.00
2022-09-11T15:32:17.223Z,3.40
2022-09-11T15:34:47.410Z,3.40
2022-09-11T15:37:17.258Z,3.10
2022-09-11T15:39:45.923Z,3.53
2022-09-11T15:42:14.487Z,3.50
2022-09-11T15:44:46.039Z,3.53
2022-09-11T15:47:14.720Z,3.38
2022-09-11T15:49:44.461Z,3.20
2022-09-11T15:52:13.000Z,4.15
2022-09-11T15:54:42.617Z,3.80
2022-09-11T15:57:11.060Z,3.42
2022-09-11T15:59:40.075Z,3.67
2022-09-11T16:02:11.658Z,4.13
2022-09-11T16:04:40.481Z,3.10
2022-09-11T16:07:08.980Z,3.20
2022-09-11T16:09:37.461Z,2.95
2022-09-11T16:12:06.535Z,2.60
2022-09-11T16:14:36.621Z,2.50
2022-09-11T16:17:06.938Z,2.50
2022-09-11T16:19:38.582Z,3.10
2022-09-11T16:22:08.131Z,2.77
2022-09-11T16:24:38.059Z,3.00
2022-09-11T16:27:08.587Z,3.40
2022-09-11T16:30:15.643Z,3.00
2022-09-11T16:32:29.178Z,3.25
2022-09-11T16:35:00.122Z,2.97
2022-09-11T16:37:31.047Z,2.90
2022-09-11T16:40:00.012Z,3.13
2022-09-11T16:42:28.905Z,3.00
2022-09-11T16:47:02.129Z,2.80
2022-09-11T16:49:40.908Z,2.70
2022-09-11T16:52:19.907Z,2.63
2022-09-11T16:54:49.116Z,2.40
2022-09-11T16:57:17.750Z,2.97
2022-09-11T16:59:46.313Z,2.57
2022-09-11T17:02:17.172Z,2.57
2022-09-11T17:04:46.064Z,3.47
2022-09-11T17:07:14.679Z,2.87
2022-09-11T17:09:43.502Z,3.37
2022-09-11T17:12:12.075Z,2.90
2022-09-11T17:14:40.670Z,3.40
2022-09-11T17:17:09.258Z,3.53
2022-09-11T17:19:41.853Z,3.27
2022-09-11T17:22:10.656Z,3.47
2022-09-11T17:24:39.811Z,3.57
2022-09-11T17:27:08.622Z,3.50
2022-09-11T17:29:41.178Z,3.23
2022-09-11T17:32:27.935Z,3.30
2022-09-11T17:34:59.518Z,3.30
2022-09-11T17:37:28.960Z,3.63
2022-09-11T17:39:58.829Z,3.37
2022-09-11T17:42:28.781Z,3.73
2022-09-11T17:44:57.706Z,3.90
2022-09-11T17:47:27.107Z,3.87
2022-09-11T17:49:55.913Z,4.23
2022-09-11T17:52:26.558Z,3.60
2022-09-11T17:54:56.707Z,4.17
2022-09-11T17:57:25.719Z,4.53
2022-09-11T17:59:55.382Z,4.87
2022-09-11T18:02:24.187Z,4.97
2022-09-11T18:04:52.923Z,5.10
2022-09-11T18:07:22.140Z,5.27
2022-09-11T18:09:56.204Z,5.23
2022-09-11T18:12:28.535Z,5.30
2022-09-11T18:14:59.668Z,4.50
2022-09-11T18:17:28.749Z,4.33
2022-09-11T18:19:57.206Z,4.40
2022-09-11T18:22:26.019Z,4.17
2022-09-11T18:24:56.420Z,4.20
2022-09-11T18:27:25.080Z,3.97
2022-09-11T18:29:54.638Z,4.10
2022-09-11T18:32:23.398Z,3.80
2022-09-11T18:34:52.173Z,4.60
2022-09-11T18:37:22.082Z,4.07
2022-09-11T18:39:50.646Z,4.00
2022-09-11T18:42:21.155Z,3.97
2022-09-11T18:44:50.050Z,3.93
2022-09-11T18:47:20.607Z,4.03
2022-09-11T18:49:51.493Z,3.97
2022-09-11T18:52:25.484Z,3.80
2022-09-11T18:54:54.784Z,4.10
2022-09-11T18:57:25.685Z,3.97
2022-09-11T18:59:54.313Z,4.13
2022-09-11T19:02:22.838Z,4.30
2022-09-11T19:04:52.707Z,3.73
2022-09-11T19:07:21.408Z,4.53
2022-09-11T19:09:50.487Z,4.53
2022-09-11T19:12:20.974Z,4.20
2022-09-11T19:14:50.898Z,4.63
2022-09-11T19:17:19.487Z,4.60
2022-09-11T19:19:48.241Z,5.00
2022-09-11T19:22:16.782Z,4.93
2022-09-11T19:24:46.048Z,4.70
2022-09-11T19:27:14.610Z,4.30
2022-09-11T19:29:43.324Z,4.57
2022-09-11T19:32:14.353Z,3.70
2022-09-11T19:34:47.171Z,3.87
2022-09-11T19:37:16.422Z,4.20
2022-09-11T19:39:45.035Z,4.27
2022-09-11T19:42:13.829Z,4.00
2022-09-11T19:44:42.591Z,4.60
2022-09-11T19:47:13.045Z,3.73
2022-09-11T19:49:41.538Z,4.33
2022-09-11T19:52:11.697Z,4.00
2022-09-11T19:54:40.523Z,3.83
2022-09-11T19:57:09.007Z,3.80
2022-09-11T19:59:38.161Z,4.20
2022-09-11T20:02:07.031Z,3.77
2022-09-11T20:04:36.921Z,3.83
2022-09-11T20:07:05.471Z,3.70
2022-09-11T20:09:34.477Z,4.47
2022-09-11T20:12:03.359Z,3.63
2022-09-11T20:14:32.090Z,3.83
2022-09-11T20:17:01.612Z,4.20
2022-09-11T20:19:30.119Z,3.90
2022-09-11T20:22:00.601Z,3.77
2022-09-11T20:24:29.745Z,3.67
2022-09-11T20:26:58.257Z,4.10
2022-09-11T20:29:26.755Z,4.23
2022-09-11T20:31:55.843Z,3.77
2022-09-11T20:34:27.889Z,4.30
2022-09-11T20:36:57.008Z,4.07
2022-09-11T20:39:26.961Z,4.13
2022-09-11T20:41:55.365Z,3.80
2022-09-11T20:44:24.441Z,3.90
2022-09-11T20:46:52.937Z,3.93
2022-09-11T20:49:21.455Z,4.20
2022-09-11T20:51:49.978Z,3.87
2022-09-11T20:54:18.443Z,3.70
2022-09-11T20:56:48.251Z,3.50
2022-09-11T20:59:17.595Z,4.63
2022-09-11T21:01:46.164Z,4.00
2022-09-11T21:04:14.622Z,4.30
2022-09-11T21:06:43.083Z,3.70
2022-09-11T21:09:12.954Z,3.53
2022-09-11T21:11:42.163Z,3.60
2022-09-11T21:14:13.174Z,3.90
2022-09-11T21:16:41.715Z,4.77
2022-09-11T21:19:10.722Z,4.03
2022-09-11T21:21:40.162Z,4.07
2022-09-11T21:24:11.858Z,3.87
2022-09-11T21:26:40.502Z,4.00
2022-09-11T21:29:12.231Z,3.60
2022-09-11T21:31:42.152Z,4.23
2022-09-11T21:34:11.112Z,4.17
2022-09-11T21:36:39.638Z,4.17
2022-09-11T21:39:08.098Z,4.20
2022-09-11T21:41:36.848Z,3.87
2022-09-11T21:44:05.408Z,3.93
2022-09-11T21:46:34.384Z,4.03
2022-09-11T21:49:04.482Z,4.20
2022-09-11T21:51:33.282Z,4.07
2022-09-11T21:54:02.229Z,3.83
2022-09-11T21:56:32.989Z,4.37
2022-09-11T21:59:02.150Z,4.43
2022-09-11T22:01:31.824Z,4.43
2022-09-11T22:04:01.824Z,4.17
2022-09-11T22:06:32.585Z,4.73
2022-09-11T22:09:01.776Z,4.03
2022-09-11T22:11:30.444Z,4.17
2022-09-11T22:13:59.434Z,4.53
2022-09-11T22:16:28.186Z,4.13
2022-09-11T22:18:57.045Z,4.60
2022-09-11T22:21:25.809Z,4.30
2022-09-11T22:23:57.271Z,4.80
2022-09-11T22:26:26.061Z,4.13
2022-09-11T22:28:54.856Z,4.60
2022-09-11T22:31:26.237Z,4.70
2022-09-11T22:33:55.976Z,4.30
2022-09-11T22:36:26.112Z,4.77
2022-09-11T22:38:57.057Z,4.60
2022-09-11T22:41:26.925Z,4.50
2022-09-11T22:43:55.751Z,4.70
2022-09-11T22:46:26.800Z,4.73
2022-09-11T22:48:56.258Z,5.17
2022-09-11T22:51:24.972Z,5.00
2022-09-11T22:53:55.989Z,5.17
2022-09-11T22:56:25.233Z,5.30
2022-09-11T22:58:54.655Z,5.87
2022-09-11T23:01:24.218Z,5.20
2022-09-11T23:03:53.906Z,5.50
2022-09-11T23:06:40.769Z,5.43
2022-09-11T23:09:16.748Z,5.23
2022-09-11T23:11:46.359Z,5.10
2022-09-11T23:14:15.668Z,5.70
2022-09-11T23:16:45.059Z,4.83
2022-09-11T23:19:15.193Z,5.57
2022-09-11T23:21:43.957Z,5.60
2022-09-11T23:24:16.598Z,5.33
2022-09-11T23:26:45.540Z,5.30
2022-09-11T23:29:14.343Z,5.30
2022-09-11T23:31:44.355Z,5.13
2022-09-11T23:34:16.867Z,5.80
2022-09-11T23:36:46.033Z,5.10
2022-09-11T23:39:16.432Z,5.70
2022-09-11T23:41:45.128Z,5.27
2022-09-11T23:44:14.096Z,5.50
2022-09-11T23:46:42.935Z,6.00
2022-09-11T23:49:12.674Z,6.17
2022-09-11T23:51:41.784Z,5.87
2022-09-11T23:54:10.528Z,5.80
2022-09-11T23:56:40.998Z,5.63
2022-09-11T23:59:09.678Z,5.40
